sensor_id;sensor_type;location;lat;lon;timestamp;temperature;humidity
46898;DHT22;32646;50.958;6.258;2024-03-25T00:00:46;4.60;99.90
46898;DHT22;32646;50.958;6.258;2024-03-25T00:03:12;4.60;99.90
46898;DHT22;32646;50.958;6.258;2024-03-25T00:05:37;4.70;99.90
46898;DHT22;32646;50.958;6.258;2024-03-25T00:08:03;4.70;99.90
46898;DHT22;32646;50.958;6.258;2024-03-25T00:10:29;4.60;99.90
46898;DHT22;32646;50.958;6.258;2024-03-25T00:12:55;4.60;99.90
46898;DHT22;32646;50.958;6.258;2024-03-25T00:15:21;4.60;99.90
46898;DHT22;32646;50.958;6.258;2024-03-25T00:17:47;4.60;99.90
46898;DHT22;32646;50.958;6.258;2024-03-25T00:20:13;4.50;99.90
46898;DHT22;32646;50.958;6.258;2024-03-25T00:22:39;4.50;99.90
46898;DHT22;32646;50.958;6.258;2024-03-25T00:25:05;4.50;99.90
46898;DHT22;32646;50.958;6.258;2024-03-25T00:27:31;4.40;99.90
46898;DHT22;32646;50.958;6.258;2024-03-25T00:29:57;4.40;99.90
46898;DHT22;32646;50.958;6.258;2024-03-25T00:32:23;4.40;99.90
46898;DHT22;32646;50.958;6.258;2024-03-25T00:34:48;4.30;99.90
46898;DHT22;32646;50.958;6.258;2024-03-25T00:37:14;4.30;99.90
46898;DHT22;32646;50.958;6.258;2024-03-25T00:39:40;4.30;99.90
46898;DHT22;32646;50.958;6.258;2024-03-25T00:42:06;4.20;99.90
46898;DHT22;32646;50.958;6.258;2024-03-25T00:44:31;4.20;99.90
46898;DHT22;32646;50.958;6.258;2024-03-25T00:46:57;4.20;99.90
46898;DHT22;32646;50.958;6.258;2024-03-25T00:49:23;4.00;99.90
46898;DHT22;32646;50.958;6.258;2024-03-25T00:51:48;4.00;99.90
46898;DHT22;32646;50.958;6.258;2024-03-25T00:54:14;4.00;99.90
46898;DHT22;32646;50.958;6.258;2024-03-25T00:56:40;4.00;99.90
46898;DHT22;32646;50.958;6.258;2024-03-25T00:59:05;3.90;99.90
46898;DHT22;32646;50.958;6.258;2024-03-25T01:01:32;3.90;99.90
46898;DHT22;32646;50.958;6.258;2024-03-25T01:03:58;3.90;99.90
46898;DHT22;32646;50.958;6.258;2024-03-25T01:06:24;3.90;99.90
46898;DHT22;32646;50.958;6.258;2024-03-25T01:08:50;3.90;99.90
46898;DHT22;32646;50.958;6.258;2024-03-25T01:11:16;3.90;99.90
46898;DHT22;32646;50.958;6.258;2024-03-25T01:13:42;3.80;99.90
46898;DHT22;32646;50.958;6.258;2024-03-25T01:16:08;3.80;99.90
46898;DHT22;32646;50.958;6.258;2024-03-25T01:18:34;3.90;99.90
46898;DHT22;32646;50.958;6.258;2024-03-25T01:20:59;3.90;99.90
46898;DHT22;32646;50.958;6.258;2024-03-25T01:23:25;3.80;99.90
46898;DHT22;32646;50.958;6.258;2024-03-25T01:25:51;3.70;99.90
46898;DHT22;32646;50.958;6.258;2024-03-25T01:28:17;3.60;99.90
46898;DHT22;32646;50.958;6.258;2024-03-25T01:30:43;3.60;99.90
46898;DHT22;32646;50.958;6.258;2024-03-25T01:33:08;3.60;99.90
46898;DHT22;32646;50.958;6.258;2024-03-25T01:35:34;3.60;99.90
46898;DHT22;32646;50.958;6.258;2024-03-25T01:38:00;3.60;99.90
46898;DHT22;32646;50.958;6.258;2024-03-25T01:40:25;3.60;99.90
46898;DHT22;32646;50.958;6.258;2024-03-25T01:43:02;3.50;99.90
46898;DHT22;32646;50.958;6.258;2024-03-25T01:45:33;3.50;99.90
46898;DHT22;32646;50.958;6.258;2024-03-25T01:48:04;3.60;99.90
46898;DHT22;32646;50.958;6.258;2024-03-25T01:50:34;3.50;99.90
46898;DHT22;32646;50.958;6.258;2024-03-25T01:53:00;3.50;99.90
46898;DHT22;32646;50.958;6.258;2024-03-25T01:55:28;3.50;99.90
46898;DHT22;32646;50.958;6.258;2024-03-25T01:57:56;3.60;99.90
46898;DHT22;32646;50.958;6.258;2024-03-25T02:00:22;3.60;99.90
46898;DHT22;32646;50.958;6.258;2024-03-25T02:02:50;3.60;99.90
46898;DHT22;32646;50.958;6.258;2024-03-25T02:05:17;3.60;99.90
46898;DHT22;32646;50.958;6.258;2024-03-25T02:07:44;3.60;99.90
46898;DHT22;32646;50.958;6.258;2024-03-25T02:10:10;3.50;99.90
46898;DHT22;32646;50.958;6.258;2024-03-25T02:12:37;3.50;99.90
46898;DHT22;32646;50.958;6.258;2024-03-25T02:15:05;3.50;99.90
46898;DHT22;32646;50.958;6.258;2024-03-25T02:17:31;3.50;99.90
46898;DHT22;32646;50.958;6.258;2024-03-25T02:19:56;3.50;99.90
46898;DHT22;32646;50.958;6.258;2024-03-25T02:22:22;3.50;99.90
46898;DHT22;32646;50.958;6.258;2024-03-25T02:24:51;3.50;99.90
46898;DHT22;32646;50.958;6.258;2024-03-25T02:27:18;3.40;99.90
46898;DHT22;32646;50.958;6.258;2024-03-25T02:29:43;3.40;99.90
46898;DHT22;32646;50.958;6.258;2024-03-25T02:32:09;3.30;99.90
46898;DHT22;32646;50.958;6.258;2024-03-25T02:34:35;3.30;99.90
46898;DHT22;32646;50.958;6.258;2024-03-25T02:37:00;3.20;99.90
46898;DHT22;32646;50.958;6.258;2024-03-25T02:39:26;3.20;99.90
46898;DHT22;32646;50.958;6.258;2024-03-25T02:41:52;3.20;99.90
46898;DHT22;32646;50.958;6.258;2024-03-25T02:44:17;3.10;99.90
46898;DHT22;32646;50.958;6.258;2024-03-25T02:46:43;3.10;99.90
46898;DHT22;32646;50.958;6.258;2024-03-25T02:49:09;3.10;99.90
46898;DHT22;32646;50.958;6.258;2024-03-25T02:51:35;3.10;99.90
46898;DHT22;32646;50.958;6.258;2024-03-25T02:54:01;3.00;99.90
46898;DHT22;32646;50.958;6.258;2024-03-25T02:56:26;3.00;99.90
46898;DHT22;32646;50.958;6.258;2024-03-25T02:58:52;3.00;99.90
46898;DHT22;32646;50.958;6.258;2024-03-25T03:01:18;3.00;99.90
46898;DHT22;32646;50.958;6.258;2024-03-25T03:03:44;3.00;99.90
46898;DHT22;32646;50.958;6.258;2024-03-25T03:06:09;2.90;99.90
46898;DHT22;32646;50.958;6.258;2024-03-25T03:08:35;2.90;99.90
46898;DHT22;32646;50.958;6.258;2024-03-25T03:11:01;2.80;99.90
46898;DHT22;32646;50.958;6.258;2024-03-25T03:13:26;2.80;99.90
46898;DHT22;32646;50.958;6.258;2024-03-25T03:15:52;2.70;99.90
46898;DHT22;32646;50.958;6.258;2024-03-25T03:18:18;2.70;99.90
46898;DHT22;32646;50.958;6.258;2024-03-25T03:20:43;2.70;99.90
46898;DHT22;32646;50.958;6.258;2024-03-25T03:23:09;2.60;99.90
46898;DHT22;32646;50.958;6.258;2024-03-25T03:25:35;2.60;99.90
46898;DHT22;32646;50.958;6.258;2024-03-25T03:28:00;2.60;99.90
46898;DHT22;32646;50.958;6.258;2024-03-25T03:30:26;2.40;99.90
46898;DHT22;32646;50.958;6.258;2024-03-25T03:32:53;2.30;99.90
46898;DHT22;32646;50.958;6.258;2024-03-25T03:35:18;2.30;99.90
46898;DHT22;32646;50.958;6.258;2024-03-25T03:37:44;2.20;99.90
46898;DHT22;32646;50.958;6.258;2024-03-25T03:40:10;2.20;99.90
46898;DHT22;32646;50.958;6.258;2024-03-25T03:42:36;2.20;99.90
46898;DHT22;32646;50.958;6.258;2024-03-25T03:45:01;2.10;99.90
46898;DHT22;32646;50.958;6.258;2024-03-25T03:47:27;2.00;99.90
46898;DHT22;32646;50.958;6.258;2024-03-25T03:49:53;2.00;99.90
46898;DHT22;32646;50.958;6.258;2024-03-25T03:52:18;2.10;99.90
46898;DHT22;32646;50.958;6.258;2024-03-25T03:54:44;2.10;99.90
46898;DHT22;32646;50.958;6.258;2024-03-25T03:57:10;2.10;99.90
46898;DHT22;32646;50.958;6.258;2024-03-25T03:59:35;2.10;99.90
46898;DHT22;32646;50.958;6.258;2024-03-25T04:02:01;2.00;99.90
46898;DHT22;32646;50.958;6.258;2024-03-25T04:04:27;2.00;99.90
46898;DHT22;32646;50.958;6.258;2024-03-25T04:06:52;2.00;99.90
46898;DHT22;32646;50.958;6.258;2024-03-25T04:09:18;2.00;99.90
46898;DHT22;32646;50.958;6.258;2024-03-25T04:11:43;2.00;99.90
46898;DHT22;32646;50.958;6.258;2024-03-25T04:14:10;2.10;99.90
46898;DHT22;32646;50.958;6.258;2024-03-25T04:16:36;2.20;99.90
46898;DHT22;32646;50.958;6.258;2024-03-25T04:19:02;2.20;99.90
46898;DHT22;32646;50.958;6.258;2024-03-25T04:21:27;2.20;99.90
46898;DHT22;32646;50.958;6.258;2024-03-25T04:23:53;2.10;99.90
46898;DHT22;32646;50.958;6.258;2024-03-25T04:26:19;2.00;99.90
46898;DHT22;32646;50.958;6.258;2024-03-25T04:28:44;2.00;99.90
46898;DHT22;32646;50.958;6.258;2024-03-25T04:31:10;1.90;99.90
46898;DHT22;32646;50.958;6.258;2024-03-25T04:33:36;1.90;99.90
46898;DHT22;32646;50.958;6.258;2024-03-25T04:36:01;2.00;99.90
46898;DHT22;32646;50.958;6.258;2024-03-25T04:38:27;1.90;99.90
46898;DHT22;32646;50.958;6.258;2024-03-25T04:40:53;1.90;99.90
46898;DHT22;32646;50.958;6.258;2024-03-25T04:43:19;1.70;99.90
46898;DHT22;32646;50.958;6.258;2024-03-25T04:45:44;1.60;99.90
46898;DHT22;32646;50.958;6.258;2024-03-25T04:48:10;1.50;99.90
46898;DHT22;32646;50.958;6.258;2024-03-25T04:50:36;1.40;99.90
46898;DHT22;32646;50.958;6.258;2024-03-25T04:53:01;1.30;99.90
46898;DHT22;32646;50.958;6.258;2024-03-25T04:55:27;1.30;99.90
46898;DHT22;32646;50.958;6.258;2024-03-25T04:57:53;1.20;99.90
46898;DHT22;32646;50.958;6.258;2024-03-25T05:00:19;1.20;99.90
46898;DHT22;32646;50.958;6.258;2024-03-25T05:02:44;1.20;99.90
46898;DHT22;32646;50.958;6.258;2024-03-25T05:05:10;1.10;99.90
46898;DHT22;32646;50.958;6.258;2024-03-25T05:07:36;1.10;99.90
46898;DHT22;32646;50.958;6.258;2024-03-25T05:10:01;1.10;99.90
46898;DHT22;32646;50.958;6.258;2024-03-25T05:12:27;1.00;99.90
46898;DHT22;32646;50.958;6.258;2024-03-25T05:14:53;1.10;99.90
46898;DHT22;32646;50.958;6.258;2024-03-25T05:17:18;1.10;99.90
46898;DHT22;32646;50.958;6.258;2024-03-25T05:19:44;1.00;99.90
46898;DHT22;32646;50.958;6.258;2024-03-25T05:22:10;0.90;99.90
46898;DHT22;32646;50.958;6.258;2024-03-25T05:24:35;0.90;99.90
46898;DHT22;32646;50.958;6.258;2024-03-25T05:27:01;0.80;99.90
46898;DHT22;32646;50.958;6.258;2024-03-25T05:29:27;0.80;99.90
46898;DHT22;32646;50.958;6.258;2024-03-25T05:31:58;0.80;99.90
46898;DHT22;32646;50.958;6.258;2024-03-25T05:34:24;0.70;99.90
46898;DHT22;32646;50.958;6.258;2024-03-25T05:36:50;0.70;99.90
46898;DHT22;32646;50.958;6.258;2024-03-25T05:39:16;0.60;99.90
46898;DHT22;32646;50.958;6.258;2024-03-25T05:41:42;0.60;99.90
46898;DHT22;32646;50.958;6.258;2024-03-25T05:44:07;0.60;99.90
46898;DHT22;32646;50.958;6.258;2024-03-25T05:46:33;0.70;99.90
46898;DHT22;32646;50.958;6.258;2024-03-25T05:49:05;0.70;99.90
46898;DHT22;32646;50.958;6.258;2024-03-25T05:51:32;0.80;99.90
46898;DHT22;32646;50.958;6.258;2024-03-25T05:53:57;0.80;99.90
46898;DHT22;32646;50.958;6.258;2024-03-25T05:56:23;0.90;99.90
46898;DHT22;32646;50.958;6.258;2024-03-25T05:58:49;0.80;99.90
46898;DHT22;32646;50.958;6.258;2024-03-25T06:01:15;0.70;99.90
46898;DHT22;32646;50.958;6.258;2024-03-25T06:03:40;0.70;99.90
46898;DHT22;32646;50.958;6.258;2024-03-25T06:06:06;0.70;99.90
46898;DHT22;32646;50.958;6.258;2024-03-25T06:08:32;0.70;99.90
46898;DHT22;32646;50.958;6.258;2024-03-25T06:11:01;0.80;99.90
46898;DHT22;32646;50.958;6.258;2024-03-25T06:13:27;0.90;99.90
46898;DHT22;32646;50.958;6.258;2024-03-25T06:15:52;0.90;99.90
46898;DHT22;32646;50.958;6.258;2024-03-25T06:18:19;1.20;99.90
46898;DHT22;32646;50.958;6.258;2024-03-25T06:20:45;1.30;99.90
46898;DHT22;32646;50.958;6.258;2024-03-25T06:23:11;1.30;99.90
46898;DHT22;32646;50.958;6.258;2024-03-25T06:25:46;1.40;99.90
46898;DHT22;32646;50.958;6.258;2024-03-25T06:28:12;1.60;99.90
46898;DHT22;32646;50.958;6.258;2024-03-25T06:30:38;1.80;99.90
46898;DHT22;32646;50.958;6.258;2024-03-25T06:33:03;2.00;99.90
46898;DHT22;32646;50.958;6.258;2024-03-25T06:35:29;2.20;99.90
46898;DHT22;32646;50.958;6.258;2024-03-25T06:37:55;2.40;99.90
46898;DHT22;32646;50.958;6.258;2024-03-25T06:40:20;2.50;99.90
46898;DHT22;32646;50.958;6.258;2024-03-25T06:42:46;2.80;99.90
46898;DHT22;32646;50.958;6.258;2024-03-25T06:45:12;3.00;99.90
46898;DHT22;32646;50.958;6.258;2024-03-25T06:47:37;3.20;99.90
46898;DHT22;32646;50.958;6.258;2024-03-25T06:50:03;3.40;99.90
46898;DHT22;32646;50.958;6.258;2024-03-25T06:52:29;3.60;99.90
46898;DHT22;32646;50.958;6.258;2024-03-25T06:54:55;3.70;99.90
46898;DHT22;32646;50.958;6.258;2024-03-25T06:57:20;3.80;99.90
46898;DHT22;32646;50.958;6.258;2024-03-25T06:59:46;4.00;99.90
46898;DHT22;32646;50.958;6.258;2024-03-25T07:02:12;4.10;99.90
46898;DHT22;32646;50.958;6.258;2024-03-25T07:04:37;4.40;99.90
46898;DHT22;32646;50.958;6.258;2024-03-25T07:07:03;4.40;99.90
46898;DHT22;32646;50.958;6.258;2024-03-25T07:09:29;4.60;99.90
46898;DHT22;32646;50.958;6.258;2024-03-25T07:11:55;4.60;99.90
46898;DHT22;32646;50.958;6.258;2024-03-25T07:14:20;4.60;99.90
46898;DHT22;32646;50.958;6.258;2024-03-25T07:16:46;4.60;99.90
46898;DHT22;32646;50.958;6.258;2024-03-25T07:19:12;4.70;99.90
46898;DHT22;32646;50.958;6.258;2024-03-25T07:21:37;4.70;99.90
46898;DHT22;32646;50.958;6.258;2024-03-25T07:24:03;5.00;99.90
46898;DHT22;32646;50.958;6.258;2024-03-25T07:26:29;5.20;99.90
46898;DHT22;32646;50.958;6.258;2024-03-25T07:28:55;5.40;99.90
46898;DHT22;32646;50.958;6.258;2024-03-25T07:31:20;5.50;99.30
46898;DHT22;32646;50.958;6.258;2024-03-25T07:33:46;5.60;97.40
46898;DHT22;32646;50.958;6.258;2024-03-25T07:36:12;5.60;94.00
46898;DHT22;32646;50.958;6.258;2024-03-25T07:38:37;6.00;93.70
46898;DHT22;32646;50.958;6.258;2024-03-25T07:41:06;6.30;92.00
46898;DHT22;32646;50.958;6.258;2024-03-25T07:43:32;6.60;84.00
46898;DHT22;32646;50.958;6.258;2024-03-25T07:45:57;6.70;83.10
46898;DHT22;32646;50.958;6.258;2024-03-25T07:48:23;6.80;75.20
46898;DHT22;32646;50.958;6.258;2024-03-25T07:50:49;7.20;81.70
46898;DHT22;32646;50.958;6.258;2024-03-25T07:53:14;7.60;78.40
46898;DHT22;32646;50.958;6.258;2024-03-25T07:55:40;7.70;63.20
46898;DHT22;32646;50.958;6.258;2024-03-25T07:58:06;8.00;59.40
46898;DHT22;32646;50.958;6.258;2024-03-25T08:00:31;8.30;57.90
46898;DHT22;32646;50.958;6.258;2024-03-25T08:02:57;8.40;48.80
46898;DHT22;32646;50.958;6.258;2024-03-25T08:05:23;8.90;40.20
46898;DHT22;32646;50.958;6.258;2024-03-25T08:07:48;9.00;37.20
46898;DHT22;32646;50.958;6.258;2024-03-25T08:10:14;9.80;37.60
46898;DHT22;32646;50.958;6.258;2024-03-25T08:12:40;9.70;29.60
46898;DHT22;32646;50.958;6.258;2024-03-25T08:15:08;9.80;21.60
46898;DHT22;32646;50.958;6.258;2024-03-25T08:17:36;10.00;26.70
46898;DHT22;32646;50.958;6.258;2024-03-25T08:20:01;10.50;22.60
46898;DHT22;32646;50.958;6.258;2024-03-25T08:22:27;10.80;26.20
46898;DHT22;32646;50.958;6.258;2024-03-25T08:24:53;11.00;18.90
46898;DHT22;32646;50.958;6.258;2024-03-25T08:27:18;11.30;18.90
46898;DHT22;32646;50.958;6.258;2024-03-25T08:29:44;11.60;13.10
46898;DHT22;32646;50.958;6.258;2024-03-25T08:32:09;11.70;12.60
46898;DHT22;32646;50.958;6.258;2024-03-25T08:34:35;11.90;15.30
46898;DHT22;32646;50.958;6.258;2024-03-25T08:37:01;12.20;10.20
46898;DHT22;32646;50.958;6.258;2024-03-25T08:39:26;12.20;9.00
46898;DHT22;32646;50.958;6.258;2024-03-25T08:41:52;12.00;7.50
46898;DHT22;32646;50.958;6.258;2024-03-25T08:44:18;12.00;11.10
46898;DHT22;32646;50.958;6.258;2024-03-25T08:46:43;12.30;7.50
46898;DHT22;32646;50.958;6.258;2024-03-25T08:49:09;11.90;7.20
46898;DHT22;32646;50.958;6.258;2024-03-25T08:51:35;11.60;8.30
46898;DHT22;32646;50.958;6.258;2024-03-25T08:54:00;11.50;9.30
46898;DHT22;32646;50.958;6.258;2024-03-25T08:56:26;11.70;8.90
46898;DHT22;32646;50.958;6.258;2024-03-25T08:58:52;12.10;6.70
46898;DHT22;32646;50.958;6.258;2024-03-25T09:01:17;12.10;9.30
46898;DHT22;32646;50.958;6.258;2024-03-25T09:03:43;12.30;7.40
46898;DHT22;32646;50.958;6.258;2024-03-25T09:06:09;13.10;5.90
46898;DHT22;32646;50.958;6.258;2024-03-25T09:08:35;13.80;8.20
46898;DHT22;32646;50.958;6.258;2024-03-25T09:11:01;14.10;3.00
46898;DHT22;32646;50.958;6.258;2024-03-25T09:13:27;14.00;2.80
46898;DHT22;32646;50.958;6.258;2024-03-25T09:15:52;14.50;3.70
46898;DHT22;32646;50.958;6.258;2024-03-25T09:18:18;15.50;1.00
46898;DHT22;32646;50.958;6.258;2024-03-25T09:20:44;14.60;1.00
46898;DHT22;32646;50.958;6.258;2024-03-25T09:23:09;14.50;1.00
46898;DHT22;32646;50.958;6.258;2024-03-25T09:25:35;14.70;1.00
46898;DHT22;32646;50.958;6.258;2024-03-25T09:28:01;14.70;1.00
46898;DHT22;32646;50.958;6.258;2024-03-25T09:30:26;15.00;1.30
46898;DHT22;32646;50.958;6.258;2024-03-25T09:32:52;14.90;1.00
46898;DHT22;32646;50.958;6.258;2024-03-25T09:35:18;14.50;1.10
46898;DHT22;32646;50.958;6.258;2024-03-25T09:37:43;15.10;1.00
46898;DHT22;32646;50.958;6.258;2024-03-25T09:40:09;15.10;1.00
46898;DHT22;32646;50.958;6.258;2024-03-25T09:42:52;15.20;1.00
46898;DHT22;32646;50.958;6.258;2024-03-25T09:45:25;15.50;1.00
46898;DHT22;32646;50.958;6.258;2024-03-25T09:47:53;15.90;1.00
46898;DHT22;32646;50.958;6.258;2024-03-25T09:50:20;15.60;1.00
46898;DHT22;32646;50.958;6.258;2024-03-25T09:52:49;15.40;1.00
46898;DHT22;32646;50.958;6.258;2024-03-25T09:55:16;15.30;1.00
46898;DHT22;32646;50.958;6.258;2024-03-25T09:57:45;15.30;1.00
46898;DHT22;32646;50.958;6.258;2024-03-25T10:00:11;15.80;1.00
46898;DHT22;32646;50.958;6.258;2024-03-25T10:02:38;14.70;1.00
46898;DHT22;32646;50.958;6.258;2024-03-25T10:05:05;14.80;1.00
46898;DHT22;32646;50.958;6.258;2024-03-25T10:07:31;14.90;1.00
46898;DHT22;32646;50.958;6.258;2024-03-25T10:09:57;15.00;1.00
46898;DHT22;32646;50.958;6.258;2024-03-25T10:12:22;15.00;1.00
46898;DHT22;32646;50.958;6.258;2024-03-25T10:14:48;14.80;1.00
46898;DHT22;32646;50.958;6.258;2024-03-25T10:17:14;14.70;1.00
46898;DHT22;32646;50.958;6.258;2024-03-25T10:19:39;14.50;1.00
46898;DHT22;32646;50.958;6.258;2024-03-25T10:22:06;15.00;1.00
46898;DHT22;32646;50.958;6.258;2024-03-25T10:24:45;14.60;1.00
46898;DHT22;32646;50.958;6.258;2024-03-25T10:27:20;15.60;1.00
46898;DHT22;32646;50.958;6.258;2024-03-25T10:29:53;15.90;1.00
46898;DHT22;32646;50.958;6.258;2024-03-25T10:32:19;16.00;1.00
46898;DHT22;32646;50.958;6.258;2024-03-25T10:34:45;16.20;1.00
46898;DHT22;32646;50.958;6.258;2024-03-25T10:37:11;16.60;1.00
46898;DHT22;32646;50.958;6.258;2024-03-25T10:39:40;16.20;1.00
46898;DHT22;32646;50.958;6.258;2024-03-25T10:42:12;16.00;1.00
46898;DHT22;32646;50.958;6.258;2024-03-25T10:44:39;15.60;1.00
46898;DHT22;32646;50.958;6.258;2024-03-25T10:47:06;15.90;1.00
46898;DHT22;32646;50.958;6.258;2024-03-25T10:49:38;15.90;1.00
46898;DHT22;32646;50.958;6.258;2024-03-25T10:52:11;16.70;1.00
46898;DHT22;32646;50.958;6.258;2024-03-25T10:54:39;16.80;1.00
46898;DHT22;32646;50.958;6.258;2024-03-25T10:57:06;17.00;1.00
46898;DHT22;32646;50.958;6.258;2024-03-25T10:59:32;16.80;1.00
46898;DHT22;32646;50.958;6.258;2024-03-25T11:01:58;16.80;1.00
46898;DHT22;32646;50.958;6.258;2024-03-25T11:04:24;17.00;1.00
46898;DHT22;32646;50.958;6.258;2024-03-25T11:06:50;16.30;1.00
46898;DHT22;32646;50.958;6.258;2024-03-25T11:09:23;16.30;1.00
46898;DHT22;32646;50.958;6.258;2024-03-25T11:11:49;16.60;1.00
46898;DHT22;32646;50.958;6.258;2024-03-25T11:14:16;15.70;1.00
46898;DHT22;32646;50.958;6.258;2024-03-25T11:16:41;16.10;1.00
46898;DHT22;32646;50.958;6.258;2024-03-25T11:19:10;16.00;1.00
46898;DHT22;32646;50.958;6.258;2024-03-25T11:21:36;16.00;1.00
46898;DHT22;32646;50.958;6.258;2024-03-25T11:24:08;16.50;1.00
46898;DHT22;32646;50.958;6.258;2024-03-25T11:26:34;16.10;1.00
46898;DHT22;32646;50.958;6.258;2024-03-25T11:29:00;16.60;1.00
46898;DHT22;32646;50.958;6.258;2024-03-25T11:31:26;16.60;1.00
46898;DHT22;32646;50.958;6.258;2024-03-25T11:33:55;16.30;1.00
46898;DHT22;32646;50.958;6.258;2024-03-25T11:36:21;16.90;1.00
46898;DHT22;32646;50.958;6.258;2024-03-25T11:38:57;18.10;1.00
46898;DHT22;32646;50.958;6.258;2024-03-25T11:41:23;17.10;1.00
46898;DHT22;32646;50.958;6.258;2024-03-25T11:43:50;17.10;1.00
46898;DHT22;32646;50.958;6.258;2024-03-25T11:46:19;17.30;1.00
46898;DHT22;32646;50.958;6.258;2024-03-25T11:48:45;16.70;1.00
46898;DHT22;32646;50.958;6.258;2024-03-25T11:51:17;17.00;1.00
46898;DHT22;32646;50.958;6.258;2024-03-25T11:53:43;16.40;1.00
46898;DHT22;32646;50.958;6.258;2024-03-25T11:56:10;17.20;1.00
46898;DHT22;32646;50.958;6.258;2024-03-25T11:58:37;17.50;1.00
46898;DHT22;32646;50.958;6.258;2024-03-25T12:01:03;18.00;1.00
46898;DHT22;32646;50.958;6.258;2024-03-25T12:03:28;17.00;1.00
46898;DHT22;32646;50.958;6.258;2024-03-25T12:05:55;17.40;1.00
46898;DHT22;32646;50.958;6.258;2024-03-25T12:08:21;16.50;1.00
46898;DHT22;32646;50.958;6.258;2024-03-25T12:10:47;16.60;1.00
46898;DHT22;32646;50.958;6.258;2024-03-25T12:13:12;16.80;1.00
46898;DHT22;32646;50.958;6.258;2024-03-25T12:15:38;16.10;1.00
46898;DHT22;32646;50.958;6.258;2024-03-25T12:18:04;17.10;1.00
46898;DHT22;32646;50.958;6.258;2024-03-25T12:20:30;16.30;1.00
46898;DHT22;32646;50.958;6.258;2024-03-25T12:22:56;16.30;1.00
46898;DHT22;32646;50.958;6.258;2024-03-25T12:25:21;16.50;1.00
46898;DHT22;32646;50.958;6.258;2024-03-25T12:27:47;16.30;1.00
46898;DHT22;32646;50.958;6.258;2024-03-25T12:30:13;15.70;1.00
46898;DHT22;32646;50.958;6.258;2024-03-25T12:32:43;15.50;1.00
46898;DHT22;32646;50.958;6.258;2024-03-25T12:35:14;16.10;1.00
46898;DHT22;32646;50.958;6.258;2024-03-25T12:37:40;15.40;1.00
46898;DHT22;32646;50.958;6.258;2024-03-25T12:40:07;14.40;1.00
46898;DHT22;32646;50.958;6.258;2024-03-25T12:42:34;14.70;1.00
46898;DHT22;32646;50.958;6.258;2024-03-25T12:45:00;14.60;1.00
46898;DHT22;32646;50.958;6.258;2024-03-25T12:47:26;14.90;1.00
46898;DHT22;32646;50.958;6.258;2024-03-25T12:49:52;15.90;1.00
46898;DHT22;32646;50.958;6.258;2024-03-25T12:52:18;15.80;1.00
46898;DHT22;32646;50.958;6.258;2024-03-25T12:54:43;15.00;1.00
46898;DHT22;32646;50.958;6.258;2024-03-25T12:57:10;15.20;1.00
46898;DHT22;32646;50.958;6.258;2024-03-25T12:59:36;15.50;1.00
46898;DHT22;32646;50.958;6.258;2024-03-25T13:02:02;15.60;1.00
46898;DHT22;32646;50.958;6.258;2024-03-25T13:04:28;15.60;1.00
46898;DHT22;32646;50.958;6.258;2024-03-25T13:06:53;15.30;1.00
46898;DHT22;32646;50.958;6.258;2024-03-25T13:09:19;14.90;1.00
46898;DHT22;32646;50.958;6.258;2024-03-25T13:11:45;15.90;1.00
46898;DHT22;32646;50.958;6.258;2024-03-25T13:14:14;16.30;1.00
46898;DHT22;32646;50.958;6.258;2024-03-25T13:16:40;16.10;1.00
46898;DHT22;32646;50.958;6.258;2024-03-25T13:19:06;15.60;1.00
46898;DHT22;32646;50.958;6.258;2024-03-25T13:21:32;15.40;1.00
46898;DHT22;32646;50.958;6.258;2024-03-25T13:23:57;15.30;1.00
46898;DHT22;32646;50.958;6.258;2024-03-25T13:26:23;15.90;1.00
46898;DHT22;32646;50.958;6.258;2024-03-25T13:28:49;16.60;1.00
46898;DHT22;32646;50.958;6.258;2024-03-25T13:31:14;15.80;1.00
46898;DHT22;32646;50.958;6.258;2024-03-25T13:33:41;15.60;1.00
46898;DHT22;32646;50.958;6.258;2024-03-25T13:36:07;15.90;1.00
46898;DHT22;32646;50.958;6.258;2024-03-25T13:38:33;15.90;1.00
46898;DHT22;32646;50.958;6.258;2024-03-25T13:41:00;16.20;1.00
46898;DHT22;32646;50.958;6.258;2024-03-25T13:43:26;16.30;1.00
46898;DHT22;32646;50.958;6.258;2024-03-25T13:45:51;16.00;1.00
46898;DHT22;32646;50.958;6.258;2024-03-25T13:48:17;16.60;1.00
46898;DHT22;32646;50.958;6.258;2024-03-25T13:50:43;16.20;1.00
46898;DHT22;32646;50.958;6.258;2024-03-25T13:53:09;16.70;1.00
46898;DHT22;32646;50.958;6.258;2024-03-25T13:55:35;16.90;1.00
46898;DHT22;32646;50.958;6.258;2024-03-25T13:58:01;17.00;1.00
46898;DHT22;32646;50.958;6.258;2024-03-25T14:00:27;16.20;1.00
46898;DHT22;32646;50.958;6.258;2024-03-25T14:02:52;16.20;1.00
46898;DHT22;32646;50.958;6.258;2024-03-25T14:05:18;16.50;1.00
46898;DHT22;32646;50.958;6.258;2024-03-25T14:07:44;15.80;1.00
46898;DHT22;32646;50.958;6.258;2024-03-25T14:10:10;16.30;1.00
46898;DHT22;32646;50.958;6.258;2024-03-25T14:12:35;16.40;1.00
46898;DHT22;32646;50.958;6.258;2024-03-25T14:15:01;16.60;1.00
46898;DHT22;32646;50.958;6.258;2024-03-25T14:17:27;16.50;1.00
46898;DHT22;32646;50.958;6.258;2024-03-25T14:19:53;16.30;1.00
46898;DHT22;32646;50.958;6.258;2024-03-25T14:22:21;16.20;1.00
46898;DHT22;32646;50.958;6.258;2024-03-25T14:24:46;16.50;1.00
46898;DHT22;32646;50.958;6.258;2024-03-25T14:27:13;16.20;1.00
46898;DHT22;32646;50.958;6.258;2024-03-25T14:29:38;16.00;1.00
46898;DHT22;32646;50.958;6.258;2024-03-25T14:32:04;16.00;1.00
46898;DHT22;32646;50.958;6.258;2024-03-25T14:34:30;15.70;1.00
46898;DHT22;32646;50.958;6.258;2024-03-25T14:36:56;15.50;1.00
46898;DHT22;32646;50.958;6.258;2024-03-25T14:39:22;15.70;1.00
46898;DHT22;32646;50.958;6.258;2024-03-25T14:41:47;15.40;1.00
46898;DHT22;32646;50.958;6.258;2024-03-25T14:44:13;15.30;1.00
46898;DHT22;32646;50.958;6.258;2024-03-25T14:46:39;15.50;1.00
46898;DHT22;32646;50.958;6.258;2024-03-25T14:49:04;15.20;1.00
46898;DHT22;32646;50.958;6.258;2024-03-25T14:51:30;15.50;1.00
46898;DHT22;32646;50.958;6.258;2024-03-25T14:53:56;15.50;1.00
46898;DHT22;32646;50.958;6.258;2024-03-25T14:56:23;15.60;1.00
46898;DHT22;32646;50.958;6.258;2024-03-25T14:58:48;15.80;1.00
46898;DHT22;32646;50.958;6.258;2024-03-25T15:01:14;15.60;1.00
46898;DHT22;32646;50.958;6.258;2024-03-25T15:03:40;15.20;1.00
46898;DHT22;32646;50.958;6.258;2024-03-25T15:06:05;14.90;1.00
46898;DHT22;32646;50.958;6.258;2024-03-25T15:08:32;14.80;1.00
46898;DHT22;32646;50.958;6.258;2024-03-25T15:10:58;14.80;1.00
46898;DHT22;32646;50.958;6.258;2024-03-25T15:13:23;14.70;1.00
46898;DHT22;32646;50.958;6.258;2024-03-25T15:15:49;15.00;1.00
46898;DHT22;32646;50.958;6.258;2024-03-25T15:18:15;14.80;1.00
46898;DHT22;32646;50.958;6.258;2024-03-25T15:20:40;14.60;1.00
46898;DHT22;32646;50.958;6.258;2024-03-25T15:23:06;14.90;1.00
46898;DHT22;32646;50.958;6.258;2024-03-25T15:25:32;14.70;1.00
46898;DHT22;32646;50.958;6.258;2024-03-25T15:27:58;14.80;1.00
46898;DHT22;32646;50.958;6.258;2024-03-25T15:30:24;14.80;1.00
46898;DHT22;32646;50.958;6.258;2024-03-25T15:32:49;15.00;1.00
46898;DHT22;32646;50.958;6.258;2024-03-25T15:35:15;15.20;1.00
46898;DHT22;32646;50.958;6.258;2024-03-25T15:37:41;14.90;1.00